sensor_id;sensor_type;location;lat;lon;timestamp;pressure;altitude;pressure_sealevel;temperature;humidity
6030;BME280;3043;42.682;23.376;2023-02-26T00:01:11;93795.09;;;15.51;63.34
6030;BME280;3043;42.682;23.376;2023-02-26T00:03:37;93793.44;;;15.50;64.67
6030;BME280;3043;42.682;23.376;2023-02-26T00:06:02;93800.31;;;15.51;63.74
6030;BME280;3043;42.682;23.376;2023-02-26T00:08:28;93802.59;;;15.43;64.55
6030;BME280;3043;42.682;23.376;2023-02-26T00:10:56;93791.78;;;15.49;64.67
6030;BME280;3043;42.682;23.376;2023-02-26T00:13:21;93805.53;;;15.51;62.86
6030;BME280;3043;42.682;23.376;2023-02-26T00:15:49;93786.19;;;15.41;60.57
6030;BME280;3043;42.682;23.376;2023-02-26T00:18:16;93770.72;;;15.52;61.68
6030;BME280;3043;42.682;23.376;2023-02-26T00:20:42;93783.00;;;15.50;62.27
6030;BME280;3043;42.682;23.376;2023-02-26T00:23:11;93763.00;;;15.51;63.25
6030;BME280;3043;42.682;23.376;2023-02-26T00:25:40;93775.47;;;15.46;63.19
6030;BME280;3043;42.682;23.376;2023-02-26T00:28:07;93773.44;;;15.51;62.95
6030;BME280;3043;42.682;23.376;2023-02-26T00:30:33;93780.03;;;15.42;62.95
6030;BME280;3043;42.682;23.376;2023-02-26T00:32:59;93784.59;;;15.39;63.63
6030;BME280;3043;42.682;23.376;2023-02-26T00:35:25;93775.84;;;15.40;64.07
6030;BME280;3043;42.682;23.376;2023-02-26T00:38:06;93780.56;;;15.33;65.02
6030;BME280;3043;42.682;23.376;2023-02-26T00:40:46;93777.03;;;15.34;64.59
6030;BME280;3043;42.682;23.376;2023-02-26T00:43:18;93767.16;;;15.25;65.25
6030;BME280;3043;42.682;23.376;2023-02-26T00:46:33;93779.84;;;15.17;66.30
6030;BME280;3043;42.682;23.376;2023-02-26T00:54:18;93767.72;;;15.16;67.02
6030;BME280;3043;42.682;23.376;2023-02-26T00:56:45;93738.53;;;15.11;67.04
6030;BME280;3043;42.682;23.376;2023-02-26T00:59:11;93745.59;;;15.09;66.34
6030;BME280;3043;42.682;23.376;2023-02-26T01:01:37;93758.72;;;15.08;64.37
6030;BME280;3043;42.682;23.376;2023-02-26T01:04:02;93752.28;;;15.13;65.03
6030;BME280;3043;42.682;23.376;2023-02-26T01:06:31;93739.81;;;15.18;64.38
6030;BME280;3043;42.682;23.376;2023-02-26T01:11:34;93745.78;;;15.20;63.29
6030;BME280;3043;42.682;23.376;2023-02-26T01:14:01;93731.25;;;15.16;60.12
6030;BME280;3043;42.682;23.376;2023-02-26T01:16:29;93724.94;;;15.20;60.33
6030;BME280;3043;42.682;23.376;2023-02-26T01:19:05;93714.03;;;15.28;59.35
6030;BME280;3043;42.682;23.376;2023-02-26T01:21:40;93730.19;;;15.33;57.02
6030;BME280;3043;42.682;23.376;2023-02-26T01:24:12;93719.03;;;15.31;57.15
6030;BME280;3043;42.682;23.376;2023-02-26T01:26:39;93706.53;;;15.36;58.08
6030;BME280;3043;42.682;23.376;2023-02-26T01:29:05;93700.91;;;15.43;57.37
6030;BME280;3043;42.682;23.376;2023-02-26T01:34:23;93680.38;;;15.51;55.92
6030;BME280;3043;42.682;23.376;2023-02-26T01:36:55;93680.06;;;15.56;55.02
6030;BME280;3043;42.682;23.376;2023-02-26T01:39:31;93686.03;;;15.58;55.04
6030;BME280;3043;42.682;23.376;2023-02-26T01:42:17;93657.09;;;15.48;55.19
6030;BME280;3043;42.682;23.376;2023-02-26T01:44:58;93667.72;;;15.45;55.52
6030;BME280;3043;42.682;23.376;2023-02-26T01:47:35;93677.63;;;15.40;55.70
6030;BME280;3043;42.682;23.376;2023-02-26T01:55:23;93672.94;;;15.31;56.21
6030;BME280;3043;42.682;23.376;2023-02-26T01:57:51;93666.06;;;15.30;56.27
6030;BME280;3043;42.682;23.376;2023-02-26T02:00:18;93683.47;;;15.30;55.47
6030;BME280;3043;42.682;23.376;2023-02-26T02:02:44;93671.06;;;15.33;55.81
6030;BME280;3043;42.682;23.376;2023-02-26T02:05:17;93663.56;;;15.29;56.14
6030;BME280;3043;42.682;23.376;2023-02-26T02:07:45;93649.88;;;15.39;54.25
6030;BME280;3043;42.682;23.376;2023-02-26T02:10:11;93664.19;;;15.32;51.14
6030;BME280;3043;42.682;23.376;2023-02-26T02:13:05;93683.00;;;15.37;51.81
6030;BME280;3043;42.682;23.376;2023-02-26T02:18:27;93666.94;;;15.57;52.92
6030;BME280;3043;42.682;23.376;2023-02-26T02:21:09;93639.69;;;15.49;53.05
6030;BME280;3043;42.682;23.376;2023-02-26T02:24:00;93668.09;;;15.39;52.54
6030;BME280;3043;42.682;23.376;2023-02-26T02:27:01;93667.00;;;15.43;52.14
6030;BME280;3043;42.682;23.376;2023-02-26T02:32:48;93652.66;;;15.22;50.41
6030;BME280;3043;42.682;23.376;2023-02-26T02:35:37;93660.44;;;15.36;50.67
6030;BME280;3043;42.682;23.376;2023-02-26T02:38:13;93641.84;;;15.28;50.50
6030;BME280;3043;42.682;23.376;2023-02-26T02:40:43;93653.91;;;15.17;51.19
6030;BME280;3043;42.682;23.376;2023-02-26T02:43:37;93651.88;;;15.34;50.33
6030;BME280;3043;42.682;23.376;2023-02-26T02:46:09;93674.28;;;15.38;50.63
6030;BME280;3043;42.682;23.376;2023-02-26T02:49:03;93666.91;;;15.45;50.37
6030;BME280;3043;42.682;23.376;2023-02-26T02:51:29;93682.94;;;15.65;49.65
6030;BME280;3043;42.682;23.376;2023-02-26T02:54:10;93691.53;;;15.80;47.73
6030;BME280;3043;42.682;23.376;2023-02-26T02:56:49;93717.72;;;15.78;47.36
6030;BME280;3043;42.682;23.376;2023-02-26T02:59:47;93683.13;;;15.62;47.60
6030;BME280;3043;42.682;23.376;2023-02-26T03:02:22;93661.09;;;15.54;47.51
6030;BME280;3043;42.682;23.376;2023-02-26T03:04:50;93677.94;;;15.48;47.88
6030;BME280;3043;42.682;23.376;2023-02-26T03:07:16;93671.03;;;15.61;47.55
6030;BME280;3043;42.682;23.376;2023-02-26T03:09:42;93676.97;;;15.63;47.41
6030;BME280;3043;42.682;23.376;2023-02-26T03:12:07;93690.41;;;15.57;47.39
6030;BME280;3043;42.682;23.376;2023-02-26T03:14:33;93689.19;;;15.63;47.61
6030;BME280;3043;42.682;23.376;2023-02-26T03:17:11;93680.81;;;15.58;47.88
6030;BME280;3043;42.682;23.376;2023-02-26T03:25:19;93675.84;;;15.67;47.38
6030;BME280;3043;42.682;23.376;2023-02-26T03:33:29;93662.25;;;15.62;47.02
6030;BME280;3043;42.682;23.376;2023-02-26T03:36:02;93677.25;;;15.59;47.49
6030;BME280;3043;42.682;23.376;2023-02-26T03:38:40;93685.78;;;15.48;47.78
6030;BME280;3043;42.682;23.376;2023-02-26T03:41:10;93689.72;;;15.41;48.14
6030;BME280;3043;42.682;23.376;2023-02-26T03:43:49;93670.72;;;15.25;48.73
6030;BME280;3043;42.682;23.376;2023-02-26T03:46:22;93671.84;;;15.21;47.88
6030;BME280;3043;42.682;23.376;2023-02-26T03:48:52;93670.38;;;15.17;48.27
6030;BME280;3043;42.682;23.376;2023-02-26T03:51:20;93670.97;;;15.08;48.90
6030;BME280;3043;42.682;23.376;2023-02-26T03:53:51;93663.09;;;15.22;48.22
6030;BME280;3043;42.682;23.376;2023-02-26T03:56:28;93660.59;;;15.21;48.01
6030;BME280;3043;42.682;23.376;2023-02-26T03:58:55;93666.44;;;15.24;48.42
6030;BME280;3043;42.682;23.376;2023-02-26T04:01:25;93647.06;;;15.28;48.21
6030;BME280;3043;42.682;23.376;2023-02-26T04:04:02;93646.50;;;15.37;48.20
6030;BME280;3043;42.682;23.376;2023-02-26T04:06:29;93644.44;;;15.42;47.93
6030;BME280;3043;42.682;23.376;2023-02-26T04:08:55;93649.97;;;15.24;48.12
6030;BME280;3043;42.682;23.376;2023-02-26T04:11:22;93660.94;;;15.43;46.91
6030;BME280;3043;42.682;23.376;2023-02-26T04:13:50;93653.59;;;15.35;47.02
6030;BME280;3043;42.682;23.376;2023-02-26T04:16:16;93648.56;;;15.32;47.30
6030;BME280;3043;42.682;23.376;2023-02-26T04:18:43;93635.22;;;15.37;47.04
6030;BME280;3043;42.682;23.376;2023-02-26T04:21:16;93628.25;;;15.37;47.31
6030;BME280;3043;42.682;23.376;2023-02-26T04:23:43;93634.97;;;15.27;47.90
6030;BME280;3043;42.682;23.376;2023-02-26T04:26:08;93635.31;;;15.35;48.27
6030;BME280;3043;42.682;23.376;2023-02-26T04:28:34;93636.25;;;15.34;47.79
6030;BME280;3043;42.682;23.376;2023-02-26T04:31:02;93634.22;;;15.39;47.19
6030;BME280;3043;42.682;23.376;2023-02-26T04:33:28;93633.13;;;15.29;47.95
6030;BME280;3043;42.682;23.376;2023-02-26T04:35:54;93621.75;;;15.30;47.34
6030;BME280;3043;42.682;23.376;2023-02-26T04:38:20;93609.09;;;15.24;48.05
6030;BME280;3043;42.682;23.376;2023-02-26T04:40:45;93615.59;;;15.31;47.61
6030;BME280;3043;42.682;23.376;2023-02-26T04:43:11;93591.22;;;15.32;47.47
6030;BME280;3043;42.682;23.376;2023-02-26T04:45:36;93603.91;;;15.24;48.07
6030;BME280;3043;42.682;23.376;2023-02-26T04:48:02;93604.97;;;15.34;47.38
6030;BME280;3043;42.682;23.376;2023-02-26T04:50:27;93599.22;;;15.03;48.23
6030;BME280;3043;42.682;23.376;2023-02-26T04:52:52;93598.91;;;15.07;47.39
6030;BME280;3043;42.682;23.376;2023-02-26T04:55:18;93584.63;;;15.00;47.99
6030;BME280;3043;42.682;23.376;2023-02-26T04:57:43;93592.28;;;14.89;47.92
6030;BME280;3043;42.682;23.376;2023-02-26T05:00:09;93590.13;;;14.96;47.86
6030;BME280;3043;42.682;23.376;2023-02-26T05:02:35;93616.28;;;14.94;48.08
6030;BME280;3043;42.682;23.376;2023-02-26T05:05:01;93619.81;;;14.93;49.44
6030;BME280;3043;42.682;23.376;2023-02-26T05:07:26;93612.19;;;14.90;49.52
6030;BME280;3043;42.682;23.376;2023-02-26T05:09:52;93577.75;;;14.99;49.68
6030;BME280;3043;42.682;23.376;2023-02-26T05:12:17;93613.44;;;15.11;49.80
6030;BME280;3043;42.682;23.376;2023-02-26T05:14:42;93612.53;;;14.98;50.91
6030;BME280;3043;42.682;23.376;2023-02-26T05:17:08;93577.16;;;15.08;51.13
6030;BME280;3043;42.682;23.376;2023-02-26T05:19:34;93586.47;;;14.98;51.92
6030;BME280;3043;42.682;23.376;2023-02-26T05:21:59;93601.13;;;14.87;52.16
6030;BME280;3043;42.682;23.376;2023-02-26T05:24:29;93580.56;;;14.82;52.34
6030;BME280;3043;42.682;23.376;2023-02-26T05:26:54;93585.78;;;14.82;51.99
6030;BME280;3043;42.682;23.376;2023-02-26T05:29:20;93579.06;;;14.78;52.07
6030;BME280;3043;42.682;23.376;2023-02-26T05:31:45;93596.63;;;14.89;52.68
6030;BME280;3043;42.682;23.376;2023-02-26T05:34:23;93592.06;;;14.92;52.26
6030;BME280;3043;42.682;23.376;2023-02-26T05:36:49;93601.03;;;14.88;53.34
6030;BME280;3043;42.682;23.376;2023-02-26T05:39:14;93589.34;;;15.08;52.77
6030;BME280;3043;42.682;23.376;2023-02-26T05:41:40;93593.06;;;15.30;52.11
6030;BME280;3043;42.682;23.376;2023-02-26T05:44:05;93587.84;;;15.30;52.25
6030;BME280;3043;42.682;23.376;2023-02-26T05:46:32;93592.66;;;15.36;49.43
6030;BME280;3043;42.682;23.376;2023-02-26T05:48:58;93598.22;;;15.58;48.09
6030;BME280;3043;42.682;23.376;2023-02-26T05:51:23;93608.47;;;15.86;47.86
6030;BME280;3043;42.682;23.376;2023-02-26T05:53:49;93607.03;;;15.95;47.52
6030;BME280;3043;42.682;23.376;2023-02-26T05:56:14;93613.31;;;16.18;46.93
6030;BME280;3043;42.682;23.376;2023-02-26T05:58:39;93605.34;;;16.32;45.14
6030;BME280;3043;42.682;23.376;2023-02-26T06:01:05;93597.84;;;16.40;44.34
6030;BME280;3043;42.682;23.376;2023-02-26T06:03:30;93607.06;;;16.33;43.82
6030;BME280;3043;42.682;23.376;2023-02-26T06:06:15;93590.66;;;16.56;42.94
6030;BME280;3043;42.682;23.376;2023-02-26T06:08:43;93602.47;;;16.49;43.01
6030;BME280;3043;42.682;23.376;2023-02-26T06:11:08;93609.97;;;16.66;42.41
6030;BME280;3043;42.682;23.376;2023-02-26T06:13:34;93609.75;;;16.69;42.29
6030;BME280;3043;42.682;23.376;2023-02-26T06:16:00;93603.91;;;16.78;42.17
6030;BME280;3043;42.682;23.376;2023-02-26T06:18:25;93606.81;;;16.86;41.42
6030;BME280;3043;42.682;23.376;2023-02-26T06:20:51;93619.13;;;16.96;41.26
6030;BME280;3043;42.682;23.376;2023-02-26T06:23:16;93619.75;;;17.00;40.72
6030;BME280;3043;42.682;23.376;2023-02-26T06:25:44;93620.47;;;16.89;40.36
6030;BME280;3043;42.682;23.376;2023-02-26T06:28:09;93641.00;;;17.19;39.88
6030;BME280;3043;42.682;23.376;2023-02-26T06:30:35;93606.69;;;17.23;40.32
6030;BME280;3043;42.682;23.376;2023-02-26T06:33:01;93605.16;;;17.21;40.36
6030;BME280;3043;42.682;23.376;2023-02-26T06:35:26;93584.00;;;17.47;39.78
6030;BME280;3043;42.682;23.376;2023-02-26T06:37:55;93613.09;;;17.43;39.24
6030;BME280;3043;42.682;23.376;2023-02-26T06:40:21;93641.53;;;17.60;39.28
6030;BME280;3043;42.682;23.376;2023-02-26T06:42:47;93646.53;;;17.63;38.65
6030;BME280;3043;42.682;23.376;2023-02-26T06:45:13;93607.56;;;17.71;38.07
6030;BME280;3043;42.682;23.376;2023-02-26T06:47:38;93620.50;;;17.96;37.62
6030;BME280;3043;42.682;23.376;2023-02-26T06:50:04;93625.09;;;18.27;37.22
6030;BME280;3043;42.682;23.376;2023-02-26T06:52:30;93627.31;;;18.55;37.00
6030;BME280;3043;42.682;23.376;2023-02-26T06:54:55;93660.00;;;18.95;36.66
6030;BME280;3043;42.682;23.376;2023-02-26T06:57:21;93624.81;;;19.20;36.21
6030;BME280;3043;42.682;23.376;2023-02-26T06:59:46;93616.03;;;19.64;35.56
6030;BME280;3043;42.682;23.376;2023-02-26T07:02:17;93619.25;;;19.67;34.99
6030;BME280;3043;42.682;23.376;2023-02-26T07:04:43;93613.53;;;19.94;34.79
6030;BME280;3043;42.682;23.376;2023-02-26T07:07:09;93597.63;;;20.27;34.62
6030;BME280;3043;42.682;23.376;2023-02-26T07:09:34;93627.22;;;20.70;33.39
6030;BME280;3043;42.682;23.376;2023-02-26T07:12:00;93608.25;;;20.96;33.47
6030;BME280;3043;42.682;23.376;2023-02-26T07:14:25;93603.63;;;21.09;32.78
6030;BME280;3043;42.682;23.376;2023-02-26T07:16:50;93609.13;;;21.46;32.79
6030;BME280;3043;42.682;23.376;2023-02-26T07:19:16;93591.78;;;21.34;32.12
6030;BME280;3043;42.682;23.376;2023-02-26T07:21:41;93605.97;;;21.52;32.33
6030;BME280;3043;42.682;23.376;2023-02-26T07:24:07;93610.88;;;21.85;31.90
6030;BME280;3043;42.682;23.376;2023-02-26T07:26:32;93595.75;;;22.06;31.39
6030;BME280;3043;42.682;23.376;2023-02-26T07:28:58;93617.66;;;22.64;30.12
6030;BME280;3043;42.682;23.376;2023-02-26T07:31:23;93611.03;;;22.97;29.75
6030;BME280;3043;42.682;23.376;2023-02-26T07:33:49;93615.56;;;23.14;29.66
6030;BME280;3043;42.682;23.376;2023-02-26T07:36:14;93606.81;;;22.57;29.67
6030;BME280;3043;42.682;23.376;2023-02-26T07:38:40;93623.41;;;22.87;29.72
6030;BME280;3043;42.682;23.376;2023-02-26T07:41:05;93610.63;;;22.92;29.97
6030;BME280;3043;42.682;23.376;2023-02-26T07:43:30;93607.28;;;22.99;29.66
6030;BME280;3043;42.682;23.376;2023-02-26T07:45:56;93626.97;;;23.05;29.35
6030;BME280;3043;42.682;23.376;2023-02-26T07:48:21;93627.66;;;22.60;29.40
6030;BME280;3043;42.682;23.376;2023-02-26T07:50:50;93611.00;;;22.03;29.61
6030;BME280;3043;42.682;23.376;2023-02-26T07:53:17;93624.00;;;21.66;30.06
6030;BME280;3043;42.682;23.376;2023-02-26T07:55:43;93638.28;;;21.24;30.66
6030;BME280;3043;42.682;23.376;2023-02-26T07:58:08;93629.78;;;20.81;31.08
6030;BME280;3043;42.682;23.376;2023-02-26T08:00:34;93622.22;;;20.67;31.34
6030;BME280;3043;42.682;23.376;2023-02-26T08:02:59;93623.53;;;20.52;31.59
6030;BME280;3043;42.682;23.376;2023-02-26T08:05:25;93618.59;;;20.38;31.59
6030;BME280;3043;42.682;23.376;2023-02-26T08:07:50;93618.91;;;20.24;31.57
6030;BME280;3043;42.682;23.376;2023-02-26T08:10:16;93632.41;;;19.88;32.44
6030;BME280;3043;42.682;23.376;2023-02-26T08:12:41;93626.09;;;20.22;31.96
6030;BME280;3043;42.682;23.376;2023-02-26T08:15:07;93629.47;;;20.33;32.11
6030;BME280;3043;42.682;23.376;2023-02-26T08:17:33;93631.34;;;20.22;31.55
6030;BME280;3043;42.682;23.376;2023-02-26T08:19:59;93638.00;;;20.67;31.40
6030;BME280;3043;42.682;23.376;2023-02-26T08:22:24;93630.66;;;20.91;30.97
6030;BME280;3043;42.682;23.376;2023-02-26T08:24:50;93622.84;;;20.80;30.94
6030;BME280;3043;42.682;23.376;2023-02-26T08:27:15;93627.41;;;20.57;31.42
6030;BME280;3043;42.682;23.376;2023-02-26T08:29:41;93638.31;;;20.73;31.39
6030;BME280;3043;42.682;23.376;2023-02-26T08:32:07;93651.28;;;21.16;30.98
6030;BME280;3043;42.682;23.376;2023-02-26T08:34:33;93637.38;;;20.54;30.90
6030;BME280;3043;42.682;23.376;2023-02-26T08:36:58;93633.41;;;20.89;30.71
6030;BME280;3043;42.682;23.376;2023-02-26T08:39:24;93647.75;;;21.36;30.11
6030;BME280;3043;42.682;23.376;2023-02-26T08:41:49;93661.34;;;21.41;30.26
6030;BME280;3043;42.682;23.376;2023-02-26T08:44:15;93660.97;;;21.55;30.28
6030;BME280;3043;42.682;23.376;2023-02-26T08:46:40;93653.63;;;21.49;29.99
6030;BME280;3043;42.682;23.376;2023-02-26T08:49:06;93652.53;;;21.61;29.32
6030;BME280;3043;42.682;23.376;2023-02-26T08:51:31;93653.00;;;21.36;29.94
6030;BME280;3043;42.682;23.376;2023-02-26T08:53:57;93652.94;;;21.17;30.50
6030;BME280;3043;42.682;23.376;2023-02-26T08:56:23;93662.44;;;20.99;30.71
6030;BME280;3043;42.682;23.376;2023-02-26T08:58:48;93656.16;;;21.30;30.64
6030;BME280;3043;42.682;23.376;2023-02-26T09:01:13;93642.28;;;21.58;30.02
6030;BME280;3043;42.682;23.376;2023-02-26T09:03:39;93659.16;;;21.46;30.04
6030;BME280;3043;42.682;23.376;2023-02-26T09:06:07;93657.00;;;21.70;29.73
6030;BME280;3043;42.682;23.376;2023-02-26T09:08:32;93643.81;;;21.70;29.14
6030;BME280;3043;42.682;23.376;2023-02-26T09:11:00;93641.94;;;21.42;29.62
6030;BME280;3043;42.682;23.376;2023-02-26T09:13:25;93640.78;;;21.16;29.39
6030;BME280;3043;42.682;23.376;2023-02-26T09:15:51;93646.03;;;21.16;29.56
6030;BME280;3043;42.682;23.376;2023-02-26T09:18:16;93651.34;;;21.35;30.66
6030;BME280;3043;42.682;23.376;2023-02-26T09:20:43;93621.28;;;21.96;30.38
6030;BME280;3043;42.682;23.376;2023-02-26T09:23:09;93647.38;;;22.37;29.48
6030;BME280;3043;42.682;23.376;2023-02-26T09:25:35;93658.13;;;23.01;28.57
6030;BME280;3043;42.682;23.376;2023-02-26T09:28:00;93631.16;;;23.44;27.34
6030;BME280;3043;42.682;23.376;2023-02-26T09:30:26;93626.34;;;23.30;27.24
6030;BME280;3043;42.682;23.376;2023-02-26T09:32:52;93623.00;;;23.82;27.50
6030;BME280;3043;42.682;23.376;2023-02-26T09:35:17;93641.19;;;24.47;26.23
6030;BME280;3043;42.682;23.376;2023-02-26T09:37:43;93621.63;;;24.83;25.96
6030;BME280;3043;42.682;23.376;2023-02-26T09:40:20;93652.56;;;25.08;25.75
6030;BME280;3043;42.682;23.376;2023-02-26T09:43:18;93680.34;;;24.79;25.57
6030;BME280;3043;42.682;23.376;2023-02-26T09:45:49;93650.69;;;24.05;26.19
6030;BME280;3043;42.682;23.376;2023-02-26T09:48:17;93642.31;;;24.09;26.62
6030;BME280;3043;42.682;23.376;2023-02-26T09:50:47;93628.41;;;24.42;26.35
6030;BME280;3043;42.682;23.376;2023-02-26T09:53:21;93636.38;;;24.86;26.31
6030;BME280;3043;42.682;23.376;2023-02-26T09:55:49;93631.25;;;25.35;24.57
6030;BME280;3043;42.682;23.376;2023-02-26T09:58:27;93621.84;;;25.15;24.69
6030;BME280;3043;42.682;23.376;2023-02-26T10:01:05;93643.28;;;25.63;24.61
6030;BME280;3043;42.682;23.376;2023-02-26T10:14:36;93631.84;;;24.78;25.43
6030;BME280;3043;42.682;23.376;2023-02-26T10:19:51;93623.91;;;25.29;25.40
6030;BME280;3043;42.682;23.376;2023-02-26T10:25:11;93639.63;;;25.64;25.26
6030;BME280;3043;42.682;23.376;2023-02-26T10:36:15;93628.25;;;26.62;23.83
6030;BME280;3043;42.682;23.376;2023-02-26T10:38:42;93618.31;;;26.48;23.50
6030;BME280;3043;42.682;23.376;2023-02-26T10:41:14;93611.22;;;25.82;24.06
6030;BME280;3043;42.682;23.376;2023-02-26T10:43:47;93579.56;;;25.73;24.49
6030;BME280;3043;42.682;23.376;2023-02-26T10:51:43;93558.00;;;25.26;25.02
6030;BME280;3043;42.682;23.376;2023-02-26T10:56:45;93567.75;;;24.92;24.36
6030;BME280;3043;42.682;23.376;2023-02-26T10:59:11;93568.00;;;24.56;24.85
6030;BME280;3043;42.682;23.376;2023-02-26T11:01:36;93577.13;;;24.18;25.32
6030;BME280;3043;42.682;23.376;2023-02-26T11:04:12;93579.53;;;23.94;25.68
6030;BME280;3043;42.682;23.376;2023-02-26T11:06:45;93606.06;;;23.75;25.67
6030;BME280;3043;42.682;23.376;2023-02-26T11:09:24;93577.16;;;23.56;25.81
6030;BME280;3043;42.682;23.376;2023-02-26T11:11:51;93570.13;;;22.83;27.06
6030;BME280;3043;42.682;23.376;2023-02-26T11:14:18;93579.09;;;22.53;27.27
6030;BME280;3043;42.682;23.376;2023-02-26T11:16:49;93586.88;;;22.26;27.60
6030;BME280;3043;42.682;23.376;2023-02-26T11:19:20;93580.47;;;21.72;27.86
6030;BME280;3043;42.682;23.376;2023-02-26T11:21:49;93566.31;;;21.44;28.28
6030;BME280;3043;42.682;23.376;2023-02-26T11:24:36;93561.25;;;21.13;28.44
6030;BME280;3043;42.682;23.376;2023-02-26T11:27:03;93571.91;;;20.81;29.36
6030;BME280;3043;42.682;23.376;2023-02-26T11:29:36;93568.59;;;20.79;29.33
6030;BME280;3043;42.682;23.376;2023-02-26T11:32:03;93580.88;;;20.69;29.85
6030;BME280;3043;42.682;23.376;2023-02-26T11:34:29;93601.38;;;20.75;29.52
6030;BME280;3043;42.682;23.376;2023-02-26T11:36:57;93595.22;;;20.65;29.64
6030;BME280;3043;42.682;23.376;2023-02-26T11:39:26;93592.06;;;20.71;29.69
6030;BME280;3043;42.682;23.376;2023-02-26T11:41:56;93582.75;;;20.37;30.38
6030;BME280;3043;42.682;23.376;2023-02-26T11:44:36;93573.38;;;20.44;30.04
6030;BME280;3043;42.682;23.376;2023-02-26T11:47:06;93571.03;;;20.41;30.28
6030;BME280;3043;42.682;23.376;2023-02-26T11:49:32;93594.19;;;20.26;30.56
6030;BME280;3043;42.682;23.376;2023-02-26T11:54:37;93585.97;;;20.20;30.69
6030;BME280;3043;42.682;23.376;2023-02-26T11:57:23;93604.75;;;20.15;30.56
6030;BME280;3043;42.682;23.376;2023-02-26T11:59:51;93625.84;;;20.25;30.76
6030;BME280;3043;42.682;23.376;2023-02-26T12:02:20;93621.16;;;19.97;31.20
6030;BME280;3043;42.682;23.376;2023-02-26T12:04:50;93627.00;;;19.69;31.25
6030;BME280;3043;42.682;23.376;2023-02-26T12:07:18;93635.38;;;19.63;31.41
6030;BME280;3043;42.682;23.376;2023-02-26T12:09:45;93656.31;;;19.74;31.47
6030;BME280;3043;42.682;23.376;2023-02-26T12:12:23;93656.69;;;20.01;31.94
6030;BME280;3043;42.682;23.376;2023-02-26T12:18:03;93642.97;;;20.08;32.47
6030;BME280;3043;42.682;23.376;2023-02-26T12:23:43;93643.88;;;19.87;33.41
6030;BME280;3043;42.682;23.376;2023-02-26T12:26:31;93651.00;;;19.96;33.54
6030;BME280;3043;42.682;23.376;2023-02-26T12:37:50;93644.00;;;19.54;35.87
6030;BME280;3043;42.682;23.376;2023-02-26T12:40:49;93644.03;;;19.31;37.39
6030;BME280;3043;42.682;23.376;2023-02-26T12:46:11;93638.66;;;19.76;37.33
6030;BME280;3043;42.682;23.376;2023-02-26T12:54:28;93658.66;;;19.88;37.98
6030;BME280;3043;42.682;23.376;2023-02-26T12:59:42;93656.31;;;19.74;38.54
6030;BME280;3043;42.682;23.376;2023-02-26T13:05:07;93656.06;;;19.77;36.88
6030;BME280;3043;42.682;23.376;2023-02-26T13:08:24;93634.38;;;19.75;35.97
6030;BME280;3043;42.682;23.376;2023-02-26T13:16:25;93617.97;;;19.51;36.17
6030;BME280;3043;42.682;23.376;2023-02-26T13:21:46;93629.91;;;19.55;36.28
6030;BME280;3043;42.682;23.376;2023-02-26T13:24:29;93658.25;;;19.72;35.84
6030;BME280;3043;42.682;23.376;2023-02-26T13:27:00;93653.94;;;19.71;34.77
6030;BME280;3043;42.682;23.376;2023-02-26T13:29:31;93648.81;;;19.69;34.87
6030;BME280;3043;42.682;23.376;2023-02-26T13:32:00;93657.25;;;19.84;34.87
6030;BME280;3043;42.682;23.376;2023-02-26T13:34:41;93651.25;;;19.93;34.91
6030;BME280;3043;42.682;23.376;2023-02-26T13:37:22;93651.31;;;20.13;34.46
6030;BME280;3043;42.682;23.376;2023-02-26T13:45:30;93652.63;;;20.19;34.73
6030;BME280;3043;42.682;23.376;2023-02-26T13:51:08;93650.28;;;19.94;34.21
6030;BME280;3043;42.682;23.376;2023-02-26T13:58:44;93651.81;;;19.65;34.30
6030;BME280;3043;42.682;23.376;2023-02-26T14:01:18;93654.94;;;19.48;36.39
6030;BME280;3043;42.682;23.376;2023-02-26T14:03:46;93659.00;;;19.63;35.18
6030;BME280;3043;42.682;23.376;2023-02-26T14:06:38;93643.69;;;19.68;36.15
6030;BME280;3043;42.682;23.376;2023-02-26T14:17:36;93655.94;;;19.35;38.27
6030;BME280;3043;42.682;23.376;2023-02-26T14:20:23;93647.13;;;19.36;38.19
6030;BME280;3043;42.682;23.376;2023-02-26T14:23:11;93657.44;;;19.49;37.78
6030;BME280;3043;42.682;23.376;2023-02-26T14:25:40;93663.66;;;19.59;37.54
6030;BME280;3043;42.682;23.376;2023-02-26T14:31:03;93656.81;;;19.68;34.15
6030;BME280;3043;42.682;23.376;2023-02-26T14:33:30;93661.63;;;19.63;34.03
6030;BME280;3043;42.682;23.376;2023-02-26T14:35:56;93674.41;;;19.56;34.46
6030;BME280;3043;42.682;23.376;2023-02-26T14:38:26;93680.13;;;19.61;34.35
6030;BME280;3043;42.682;23.376;2023-02-26T14:41:28;93665.44;;;19.48;34.82
6030;BME280;3043;42.682;23.376;2023-02-26T14:44:19;93680.50;;;19.57;34.77
6030;BME280;3043;42.682;23.376;2023-02-26T14:46:47;93678.38;;;19.39;35.46
6030;BME280;3043;42.682;23.376;2023-02-26T14:49:24;93680.50;;;19.34;36.17
6030;BME280;3043;42.682;23.376;2023-02-26T14:54:49;93680.25;;;19.15;35.50
6030;BME280;3043;42.682;23.376;2023-02-26T14:57:56;93682.88;;;19.04;35.65
6030;BME280;3043;42.682;23.376;2023-02-26T15:00:34;93688.84;;;18.95;35.71
6030;BME280;3043;42.682;23.376;2023-02-26T15:08:19;93687.97;;;18.62;36.35
6030;BME280;3043;42.682;23.376;2023-02-26T15:21:57;93671.03;;;18.66;37.01
6030;BME280;3043;42.682;23.376;2023-02-26T15:24:28;93697.84;;;18.69;36.54
6030;BME280;3043;42.682;23.376;2023-02-26T15:26:58;93705.38;;;18.74;37.23
6030;BME280;3043;42.682;23.376;2023-02-26T15:29:28;93703.59;;;18.74;37.34
6030;BME280;3043;42.682;23.376;2023-02-26T15:31:58;93715.25;;;18.59;37.32
6030;BME280;3043;42.682;23.376;2023-02-26T15:34:28;93694.66;;;18.77;36.93
6030;BME280;3043;42.682;23.376;2023-02-26T15:36:55;93706.91;;;18.65;37.24
6030;BME280;3043;42.682;23.376;2023-02-26T15:39:23;93701.50;;;18.45;38.04
6030;BME280;3043;42.682;23.376;2023-02-26T15:41:50;93723.19;;;18.47;38.76
6030;BME280;3043;42.682;23.376;2023-02-26T15:44:30;93721.88;;;18.52;38.28
6030;BME280;3043;42.682;23.376;2023-02-26T15:47:00;93725.09;;;18.21;40.45
6030;BME280;3043;42.682;23.376;2023-02-26T15:49:31;93729.13;;;17.91;40.77
6030;BME280;3043;42.682;23.376;2023-02-26T15:51:58;93751.38;;;17.96;41.07
6030;BME280;3043;42.682;23.376;2023-02-26T15:54:44;93754.91;;;18.08;40.64
6030;BME280;3043;42.682;23.376;2023-02-26T15:57:12;93707.56;;;17.87;41.66